Time;durP1;ratioP1;P1;durP2;ratioP2;P2;SDS_P1;SDS_P2;PMS_P1;PMS_P2;Temp;Humidity;BMP_temperature;BMP_pressure;BME280_temperature;BME280_humidity;BME280_pressure;Samples;Min_cycle;Max_cycle;Signal;HPM_P1;HPM_P2
2022/06/02 00:00:41;;;;;;;5.13;4.63;;;18.80;56.50;;;;;;6172956;23;20138;-84
2022/06/02 00:03:28;;;;;;;5.45;4.95;;;18.90;56.60;;;;;;6190012;23;20652;-84
2022/06/02 00:06:09;;;;;;;6.88;4.75;;;18.80;56.50;;;;;;6193843;23;20554;-84
2022/06/02 00:09:01;;;;;;;5.38;4.88;;;18.80;56.50;;;;;;6170588;23;20565;-84
2022/06/02 00:11:46;;;;;;;5.30;4.80;;;18.90;56.60;;;;;;6202819;23;20126;-84
2022/06/02 00:14:24;;;;;;;5.50;4.90;;;18.80;56.60;;;;;;6222104;23;20141;-84
2022/06/02 00:16:56;;;;;;;7.22;5.10;;;18.80;56.50;;;;;;6194859;23;20138;-84
2022/06/02 00:19:37;;;;;;;5.65;5.13;;;18.90;56.60;;;;;;6195259;23;20142;-84
2022/06/02 00:22:24;;;;;;;5.95;5.35;;;18.90;56.70;;;;;;6221887;23;20133;-84
2022/06/02 00:25:10;;;;;;;5.53;5.03;;;18.90;56.70;;;;;;6219502;23;20161;-84
2022/06/02 00:27:57;;;;;;;6.22;4.93;;;18.80;56.60;;;;;;6219158;23;20133;-84
2022/06/02 00:30:26;;;;;;;5.95;5.03;;;18.80;56.60;;;;;;6222744;23;20137;-84
2022/06/02 00:33:02;;;;;;;5.43;4.90;;;18.90;56.70;;;;;;6194646;23;20225;-84
2022/06/02 00:35:47;;;;;;;6.97;5.28;;;18.80;56.60;;;;;;6194802;23;20137;-84
2022/06/02 00:38:20;;;;;;;6.97;5.20;;;18.80;56.60;;;;;;6246051;23;20634;-84
2022/06/02 00:40:45;;;;;;;5.68;4.90;;;18.80;56.60;;;;;;6170114;23;20228;-84
2022/06/02 00:43:32;;;;;;;7.28;5.00;;;18.80;56.60;;;;;;6194495;23;20573;-84
2022/06/02 00:46:32;;;;;;;5.15;4.68;;;18.80;56.60;;;;;;6193835;23;20177;-84
2022/06/02 00:49:10;;;;;;;5.80;5.20;;;18.70;56.60;;;;;;6223823;23;20192;-84
2022/06/02 00:51:52;;;;;;;4.97;4.53;;;18.80;56.70;;;;;;6194261;23;20133;-84
2022/06/02 00:57:35;;;;;;;5.35;4.57;;;18.80;56.80;;;;;;6224259;23;20150;-84
2022/06/02 01:00:07;;;;;;;5.43;4.93;;;18.70;56.70;;;;;;6172799;23;20172;-84
2022/06/02 01:02:59;;;;;;;6.10;5.50;;;18.80;56.80;;;;;;6178961;23;20181;-85
2022/06/02 01:05:39;;;;;;;6.03;5.22;;;18.80;56.80;;;;;;6193394;23;20256;-84
2022/06/02 01:08:13;;;;;;;5.88;5.07;;;18.80;56.80;;;;;;6167858;23;20160;-85
2022/06/02 01:10:54;;;;;;;6.28;5.10;;;18.70;56.70;;;;;;6143352;23;20511;-84
2022/06/02 01:13:41;;;;;;;5.28;4.72;;;18.80;56.80;;;;;;6167237;23;20130;-85
2022/06/02 01:16:19;;;;;;;5.07;4.50;;;18.80;56.80;;;;;;6190642;23;20166;-84
2022/06/02 01:18:54;;;;;;;6.75;5.35;;;18.80;56.80;;;;;;6112780;23;20233;-84
2022/06/02 01:21:59;;;;;;;5.55;5.00;;;18.80;56.80;;;;;;6187030;23;20130;-85
2022/06/02 01:24:56;;;;;;;5.80;4.97;;;18.70;56.80;;;;;;6182267;23;20138;-84
2022/06/02 01:27:48;;;;;;;5.97;5.38;;;18.80;56.90;;;;;;6190596;23;20135;-84
2022/06/02 01:30:30;;;;;;;5.97;5.38;;;18.80;56.80;;;;;;6190673;23;20130;-84
2022/06/02 01:33:18;;;;;;;5.80;5.20;;;18.80;56.80;;;;;;6163162;23;20209;-84
2022/06/02 01:35:50;;;;;;;5.97;5.13;;;18.80;56.80;;;;;;6161444;23;20226;-84
2022/06/02 01:38:43;;;;;;;5.88;5.28;;;18.80;56.80;;;;;;6161302;23;20142;-84
2022/06/02 01:41:19;;;;;;;5.47;4.97;;;18.80;56.90;;;;;;6183775;23;20213;-84
2022/06/02 01:44:11;;;;;;;6.40;5.72;;;18.80;56.90;;;;;;6156213;23;20165;-84
2022/06/02 01:47:00;;;;;;;5.72;5.15;;;18.80;56.90;;;;;;6194560;23;20166;-85
2022/06/02 01:49:32;;;;;;;6.32;5.40;;;18.70;56.90;;;;;;6167189;23;20563;-84
2022/06/02 01:52:15;;;;;;;5.53;5.03;;;18.70;56.90;;;;;;6190091;23;20162;-84
2022/06/02 01:54:57;;;;;;;6.00;5.40;;;18.70;56.90;;;;;;6169595;23;20142;-84
2022/06/02 01:58:02;;;;;;;5.40;4.90;;;18.70;56.90;;;;;;6192900;23;20580;-84
2022/06/02 02:00:30;;;;;;;6.05;5.28;;;18.80;57.10;;;;;;6173286;23;20201;-84
2022/06/02 02:03:12;;;;;;;5.85;5.10;;;18.70;57.00;;;;;;6168117;23;20236;-84
2022/06/02 02:06:06;;;;;;;5.45;4.90;;;18.70;57.00;;;;;;6215688;23;20169;-84
2022/06/02 02:08:46;;;;;;;5.97;5.43;;;18.70;57.00;;;;;;6169050;23;20485;-85
2022/06/02 02:11:41;;;;;;;6.18;5.53;;;18.70;57.10;;;;;;6190053;23;20134;-84
2022/06/02 02:14:46;;;;;;;5.55;4.68;;;18.70;57.00;;;;;;6165208;23;20254;-84
2022/06/02 02:17:28;;;;;;;6.03;5.10;;;18.80;57.00;;;;;;6189573;23;20158;-84
2022/06/02 02:20:12;;;;;;;6.07;5.13;;;18.70;57.00;;;;;;6205236;23;20134;-84
2022/06/02 02:23:05;;;;;;;5.80;5.20;;;18.70;57.00;;;;;;6189988;23;20160;-84
2022/06/02 02:26:01;;;;;;;6.05;5.45;;;18.70;57.00;;;;;;6167365;23;20180;-84
2022/06/02 02:29:04;;;;;;;6.15;5.53;;;18.70;57.00;;;;;;6214924;23;20143;-84
2022/06/02 02:31:55;;;;;;;5.90;5.22;;;18.70;57.10;;;;;;6189809;23;20229;-84
2022/06/02 02:34:28;;;;;;;5.30;4.80;;;18.70;57.10;;;;;;6216463;23;20134;-84
2022/06/02 02:37:02;;;;;;;5.43;4.88;;;18.70;57.00;;;;;;6190097;23;20585;-84
2022/06/02 02:39:54;;;;;;;5.65;5.15;;;18.70;57.10;;;;;;6189921;23;20165;-84
2022/06/02 02:42:34;;;;;;;5.90;5.22;;;18.70;57.00;;;;;;6214841;23;20608;-84
2022/06/02 02:45:21;;;;;;;5.60;4.97;;;18.70;57.10;;;;;;6214682;23;20189;-84
2022/06/02 02:47:55;;;;;;;7.15;5.57;;;18.70;57.10;;;;;;6161483;23;20150;-85
2022/06/02 02:50:54;;;;;;;6.22;5.30;;;18.70;57.10;;;;;;6186888;23;20135;-84
2022/06/02 02:53:24;;;;;;;5.72;5.13;;;18.70;57.10;;;;;;6189652;23;20149;-84
2022/06/02 02:56:01;;;;;;;5.28;4.78;;;18.60;57.10;;;;;;6190176;23;20593;-84
2022/06/02 02:58:45;;;;;;;5.22;4.68;;;18.70;57.20;;;;;;6214956;23;20579;-84
2022/06/02 03:01:18;;;;;;;5.70;5.20;;;18.60;57.10;;;;;;6189574;23;20146;-84
2022/06/02 03:03:53;;;;;;;5.30;4.80;;;18.70;57.20;;;;;;6189302;23;20186;-85
2022/06/02 03:06:27;;;;;;;6.20;5.05;;;18.70;57.20;;;;;;6189374;23;20192;-84
2022/06/02 03:09:08;;;;;;;6.72;5.15;;;18.70;57.20;;;;;;6189480;23;20652;-84
2022/06/02 03:11:48;;;;;;;5.88;5.28;;;18.70;57.20;;;;;;6214805;23;20158;-84
2022/06/02 03:14:46;;;;;;;6.07;5.47;;;18.70;57.20;;;;;;6153739;23;20238;-84
2022/06/02 03:17:43;;;;;;;6.00;5.40;;;18.70;57.20;;;;;;6133646;23;20740;-84
2022/06/02 03:20:32;;;;;;;5.28;4.78;;;18.70;57.30;;;;;;6088512;23;20151;-84
2022/06/02 03:23:36;;;;;;;5.50;5.00;;;18.70;57.30;;;;;;6129562;23;20183;-84
2022/06/02 03:26:15;;;;;;;6.35;5.00;;;18.70;57.30;;;;;;6128880;23;20178;-84
2022/06/02 03:28:49;;;;;;;5.43;4.93;;;18.60;57.30;;;;;;6130758;23;20216;-84
2022/06/02 03:31:37;;;;;;;5.43;4.70;;;18.70;57.40;;;;;;6105216;23;20222;-84
2022/06/02 03:34:30;;;;;;;5.97;5.13;;;18.60;57.30;;;;;;6108715;23;20205;-84
2022/06/02 03:37:17;;;;;;;5.82;5.22;;;18.70;57.40;;;;;;6110267;23;20569;-84
2022/06/02 03:40:07;;;;;;;5.75;5.15;;;18.70;57.40;;;;;;6132266;23;20151;-84
2022/06/02 03:42:57;;;;;;;5.43;4.88;;;18.60;57.30;;;;;;6108352;23;20156;-85
2022/06/02 03:45:42;;;;;;;5.53;5.03;;;18.60;57.30;;;;;;6146571;23;20178;-84
2022/06/02 03:48:23;;;;;;;6.07;5.38;;;18.60;57.30;;;;;;6214371;23;20141;-84
2022/06/02 03:51:17;;;;;;;5.75;5.22;;;18.60;57.30;;;;;;6214529;23;20127;-84
2022/06/02 03:53:53;;;;;;;5.82;5.20;;;18.60;57.30;;;;;;6189104;23;20150;-85
2022/06/02 03:56:37;;;;;;;5.63;5.10;;;18.60;57.30;;;;;;6214361;23;20148;-84
2022/06/02 03:59:28;;;;;;;5.80;5.20;;;18.60;57.40;;;;;;6214387;23;20624;-84
2022/06/02 04:02:00;;;;;;;5.38;4.90;;;18.60;58.00;;;;;;6219909;23;20568;-84
2022/06/02 04:04:38;;;;;;;5.90;4.90;;;18.60;57.40;;;;;;6170337;23;20149;-84
2022/06/02 04:07:11;;;;;;;6.28;4.82;;;18.50;57.40;;;;;;6196524;23;20431;-84
2022/06/02 04:09:59;;;;;;;5.53;4.95;;;18.60;57.40;;;;;;6170880;23;20228;-85
2022/06/02 04:15:33;;;;;;;5.75;5.15;;;18.60;57.40;;;;;;6246790;23;20134;-84
2022/06/02 04:18:19;;;;;;;5.63;5.03;;;18.60;57.40;;;;;;6196006;23;20136;-84
2022/06/02 04:20:59;;;;;;;5.82;4.97;;;18.60;57.40;;;;;;6173387;23;20145;-84
2022/06/02 04:23:59;;;;;;;5.57;5.07;;;18.60;57.40;;;;;;6197076;23;20172;-85
2022/06/02 04:26:35;;;;;;;5.70;5.20;;;18.60;57.40;;;;;;6219514;23;20604;-84
2022/06/02 04:29:18;;;;;;;5.75;5.15;;;18.60;57.40;;;;;;6196103;23;20135;-84
2022/06/02 04:31:58;;;;;;;5.13;4.63;;;18.60;57.40;;;;;;6222029;23;20569;-84
2022/06/02 04:34:42;;;;;;;5.55;5.03;;;18.60;57.40;;;;;;6196662;23;20142;-84
2022/06/02 04:37:14;;;;;;;5.38;4.88;;;18.60;57.50;;;;;;6195353;23;20468;-84
2022/06/02 04:39:55;;;;;;;5.85;5.25;;;18.60;57.60;;;;;;6171423;23;20164;-85
2022/06/02 04:42:40;;;;;;;5.90;5.30;;;18.60;57.70;;;;;;6196280;23;20600;-85
2022/06/02 04:45:29;;;;;;;5.75;5.15;;;18.60;57.70;;;;;;6224980;23;20172;-84
2022/06/02 04:48:09;;;;;;;5.20;4.70;;;18.60;57.80;;;;;;6200903;23;20145;-84
2022/06/02 04:50:42;;;;;;;5.75;4.90;;;18.60;57.70;;;;;;6197620;23;20130;-84
2022/06/02 04:53:39;;;;;;;5.70;5.10;;;18.50;57.70;;;;;;6196363;23;20142;-83
2022/06/02 04:56:26;;;;;;;5.85;5.07;;;18.60;57.80;;;;;;6247592;23;20137;-84
2022/06/02 04:58:59;;;;;;;7.25;5.05;;;18.60;57.70;;;;;;6196881;23;20161;-84
2022/06/02 05:01:34;;;;;;;5.50;4.95;;;18.60;57.70;;;;;;6196852;23;20184;-84
2022/06/02 05:04:22;;;;;;;5.18;4.68;;;18.60;57.70;;;;;;6171189;23;20195;-84
2022/06/02 05:07:01;;;;;;;5.40;4.90;;;18.60;57.70;;;;;;6199627;23;20157;-84
2022/06/02 05:09:31;;;;;;;5.50;4.90;;;18.60;57.60;;;;;;6197475;23;20144;-85
2022/06/02 05:12:21;;;;;;;5.80;5.20;;;18.60;57.80;;;;;;6196521;23;20140;-84
2022/06/02 05:15:03;;;;;;;5.82;4.60;;;18.50;57.80;;;;;;6175967;23;20145;-84
2022/06/02 05:18:02;;;;;;;5.00;4.50;;;18.60;57.90;;;;;;6196845;23;20561;-84
2022/06/02 05:21:03;;;;;;;5.63;4.97;;;18.60;57.70;;;;;;6247381;23;20156;-84
2022/06/02 05:24:03;;;;;;;5.25;4.75;;;18.60;57.70;;;;;;6220686;23;20149;-84
2022/06/02 05:27:08;;;;;;;5.50;4.85;;;18.60;58.40;;;;;;6247371;23;20616;-84
2022/06/02 05:30:01;;;;;;;6.68;4.88;;;18.70;57.80;;;;;;6204383;23;20126;-84
2022/06/02 05:32:55;;;;;;;5.28;4.78;;;18.60;57.70;;;;;;6226936;23;20477;-84
2022/06/02 05:35:35;;;;;;;5.22;4.72;;;18.60;57.80;;;;;;6220516;23;20495;-84
2022/06/02 05:38:28;;;;;;;5.20;4.22;;;18.60;57.70;;;;;;6171910;23;20228;-84
2022/06/02 05:41:18;;;;;;;5.65;4.72;;;18.60;57.80;;;;;;6246143;23;20133;-84
2022/06/02 05:44:10;;;;;;;5.53;4.85;;;18.50;57.70;;;;;;6204025;23;20129;-84
2022/06/02 05:46:54;;;;;;;6.05;4.93;;;18.60;57.70;;;;;;6178534;23;20276;-84
2022/06/02 05:49:34;;;;;;;5.15;4.65;;;18.60;57.70;;;;;;6169689;23;20229;-84
2022/06/02 05:52:33;;;;;;;5.22;4.72;;;18.60;57.60;;;;;;6194686;23;20129;-84
2022/06/02 05:55:15;;;;;;;5.10;4.60;;;18.60;57.70;;;;;;6220573;23;20450;-84
2022/06/02 05:58:03;;;;;;;4.85;4.35;;;18.60;57.60;;;;;;6247802;23;20615;-84
2022/06/02 06:00:53;;;;;;;5.00;4.50;;;18.60;57.70;;;;;;6198502;23;20145;-84
2022/06/02 06:03:36;;;;;;;5.00;4.50;;;18.60;57.70;;;;;;6224203;23;20185;-84
2022/06/02 06:06:21;;;;;;;5.28;4.78;;;18.60;57.70;;;;;;6221356;23;20169;-84
2022/06/02 06:09:06;;;;;;;5.55;4.82;;;18.60;57.80;;;;;;6221264;23;20137;-86
2022/06/02 06:11:47;;;;;;;5.70;4.88;;;18.50;57.80;;;;;;6171562;23;20141;-84
2022/06/02 06:14:23;;;;;;;5.40;4.50;;;18.60;57.70;;;;;;6199159;23;20130;-84
2022/06/02 06:16:56;;;;;;;5.00;4.43;;;18.60;57.70;;;;;;6197801;23;20133;-84
2022/06/02 06:19:33;;;;;;;5.35;4.85;;;18.60;57.80;;;;;;6197616;23;20141;-84
2022/06/02 06:22:11;;;;;;;5.03;4.50;;;18.60;57.80;;;;;;6248991;23;20195;-84
2022/06/02 06:24:50;;;;;;;5.10;4.60;;;18.60;57.70;;;;;;6221476;23;20141;-84
2022/06/02 06:27:40;;;;;;;4.90;4.40;;;18.60;57.70;;;;;;6173080;23;20137;-84
2022/06/02 06:30:11;;;;;;;5.00;4.50;;;18.60;57.60;;;;;;6195685;23;20211;-84
2022/06/02 06:32:59;;;;;;;5.47;4.60;;;18.60;57.70;;;;;;6196480;23;20203;-84
2022/06/02 06:35:41;;;;;;;5.10;4.60;;;18.60;57.60;;;;;;6179099;23;20228;-84
2022/06/02 06:38:31;;;;;;;5.35;4.43;;;18.60;57.60;;;;;;6173039;23;20138;-84
2022/06/02 06:41:11;;;;;;;4.40;3.97;;;18.60;57.60;;;;;;6195748;23;20172;-84
2022/06/02 06:43:59;;;;;;;5.30;4.20;;;18.70;57.60;;;;;;6197779;23;20160;-84
2022/06/02 06:46:38;;;;;;;5.20;4.40;;;18.60;57.60;;;;;;6222494;23;20244;-83
2022/06/02 06:49:14;;;;;;;5.95;4.30;;;18.60;57.60;;;;;;6200358;23;20615;-84
2022/06/02 06:52:05;;;;;;;4.72;4.20;;;18.70;57.60;;;;;;6197788;23;20180;-85
2022/06/02 06:54:52;;;;;;;5.22;4.72;;;18.60;57.60;;;;;;6248204;23;20126;-84
2022/06/02 06:57:33;;;;;;;5.15;4.43;;;18.70;57.60;;;;;;6222393;23;20164;-83
2022/06/02 07:00:22;;;;;;;5.63;4.55;;;18.60;57.60;;;;;;6225124;23;20134;-83
2022/06/02 07:03:07;;;;;;;4.93;4.30;;;18.70;57.60;;;;;;6197282;23;20200;-84
2022/06/02 07:05:49;;;;;;;5.20;4.40;;;18.70;57.70;;;;;;6221356;23;20161;-83
2022/06/02 07:08:28;;;;;;;4.85;4.30;;;18.70;57.60;;;;;;6196881;23;20137;-83
2022/06/02 07:14:22;;;;;;;6.15;4.28;;;18.70;57.60;;;;;;6225302;23;20134;-83
2022/06/02 07:16:55;;;;;;;5.03;4.20;;;18.60;57.60;;;;;;6197706;23;20180;-83
2022/06/02 07:19:44;;;;;;;4.90;4.40;;;18.70;57.70;;;;;;6198604;23;20141;-83
2022/06/02 07:22:24;;;;;;;4.80;4.40;;;18.70;57.70;;;;;;6174241;23;20543;-83
2022/06/02 07:24:57;;;;;;;6.93;4.25;;;18.70;57.70;;;;;;6220405;23;20164;-83
2022/06/02 07:27:37;;;;;;;7.70;4.47;;;18.70;57.70;;;;;;6171317;23;20187;-83
2022/06/02 07:30:15;;;;;;;4.82;3.97;;;18.70;57.70;;;;;;6220242;23;20155;-83
2022/06/02 07:33:13;;;;;;;7.70;4.32;;;18.70;57.60;;;;;;6223960;23;20134;-83
2022/06/02 07:35:53;;;;;;;7.15;4.10;;;18.70;57.70;;;;;;6201463;23;20145;-84
2022/06/02 07:38:38;;;;;;;4.95;3.88;;;18.70;57.70;;;;;;6221949;23;20163;-83
2022/06/02 07:41:33;;;;;;;4.63;4.00;;;18.80;57.60;;;;;;6219695;23;20134;-84
2022/06/02 07:44:13;;;;;;;8.82;4.65;;;18.80;57.60;;;;;;6223936;23;20223;-83
2022/06/02 07:46:51;;;;;;;5.63;4.28;;;18.80;57.60;;;;;;6219205;23;20508;-84
2022/06/02 07:49:53;;;;;;;7.93;4.50;;;18.80;57.60;;;;;;6220753;23;20137;-85
2022/06/02 07:52:37;;;;;;;7.70;4.10;;;18.80;57.70;;;;;;6246064;23;20133;-83
2022/06/02 07:55:33;;;;;;;11.18;4.30;;;18.80;57.80;;;;;;6219455;23;20160;-82
2022/06/02 07:58:23;;;;;;;11.85;5.05;;;18.70;57.80;;;;;;6219288;23;20562;-84
2022/06/02 08:01:13;;;;;;;10.00;4.20;;;18.80;57.90;;;;;;6246164;23;20472;-83
2022/06/02 08:04:03;;;;;;;10.45;4.50;;;18.80;58.00;;;;;;6223167;23;20212;-82
2022/06/02 08:06:43;;;;;;;9.85;4.72;;;18.80;58.00;;;;;;6153240;23;20273;-83
2022/06/02 08:09:29;;;;;;;6.28;4.22;;;18.80;58.00;;;;;;6107957;23;20143;-83
2022/06/02 08:12:00;;;;;;;6.47;4.40;;;18.80;57.90;;;;;;6129448;23;20619;-82
2022/06/02 08:15:03;;;;;;;7.78;4.22;;;18.90;58.00;;;;;;6108319;23;20136;-83
2022/06/02 08:17:43;;;;;;;4.82;3.83;;;18.80;57.90;;;;;;6156923;23;20155;-83
2022/06/02 08:20:33;;;;;;;4.75;4.25;;;18.80;57.90;;;;;;6134925;23;20143;-83
2022/06/02 08:23:25;;;;;;;4.60;4.05;;;18.90;57.70;;;;;;6134639;23;20661;-83
2022/06/02 08:26:09;;;;;;;4.78;4.20;;;18.80;57.80;;;;;;6111218;23;20183;-83
2022/06/02 08:28:47;;;;;;;4.28;3.70;;;18.80;57.60;;;;;;6110164;23;20169;-83
2022/06/02 08:31:46;;;;;;;5.07;3.70;;;18.80;57.70;;;;;;6109021;23;20150;-83
2022/06/02 08:34:17;;;;;;;4.88;4.32;;;18.80;57.60;;;;;;6132455;23;20139;-84
2022/06/02 08:36:58;;;;;;;6.75;3.90;;;18.90;57.70;;;;;;6102812;23;20153;-83
2022/06/02 08:39:50;;;;;;;4.53;3.50;;;18.80;57.50;;;;;;6200201;23;20187;-83
2022/06/02 08:42:54;;;;;;;6.97;4.05;;;18.90;57.60;;;;;;6203155;23;20141;-83
2022/06/02 08:45:44;;;;;;;5.72;4.13;;;18.90;57.50;;;;;;6227206;23;20179;-83
2022/06/02 08:48:43;;;;;;;9.43;4.25;;;18.90;57.60;;;;;;6202834;23;20509;-83
2022/06/02 08:51:44;;;;;;;4.90;3.97;;;18.90;57.60;;;;;;6222350;23;20145;-83
2022/06/02 08:54:24;;;;;;;5.60;4.30;;;18.90;57.60;;;;;;6221885;23;20153;-83
2022/06/02 08:57:01;;;;;;;4.65;4.18;;;18.90;57.70;;;;;;6198433;23;20138;-84
2022/06/02 09:00:02;;;;;;;5.93;4.30;;;18.90;57.70;;;;;;6198316;23;20647;-83
2022/06/02 09:03:02;;;;;;;5.18;3.75;;;18.90;57.80;;;;;;6205539;23;20195;-83
2022/06/02 09:06:04;;;;;;;4.47;3.85;;;18.90;57.80;;;;;;6204525;23;20161;-83
2022/06/02 09:09:03;;;;;;;5.38;3.90;;;18.90;57.80;;;;;;6223991;23;20228;-83
2022/06/02 09:12:04;;;;;;;5.10;3.90;;;18.90;57.70;;;;;;6209140;23;20148;-84
2022/06/02 09:14:43;;;;;;;6.32;3.83;;;19.00;57.70;;;;;;6207031;23;20176;-84
2022/06/02 09:17:45;;;;;;;5.65;3.60;;;19.00;57.80;;;;;;6225616;23;20140;-84
2022/06/02 09:20:19;;;;;;;4.82;4.00;;;18.90;57.70;;;;;;6207025;23;20160;-83
2022/06/02 09:22:55;;;;;;;5.22;3.90;;;18.90;57.80;;;;;;6200526;23;20136;-83
2022/06/02 09:25:49;;;;;;;4.05;3.60;;;18.90;57.80;;;;;;6198212;23;20519;-83
2022/06/02 09:28:33;;;;;;;4.05;3.65;;;18.90;57.80;;;;;;6202316;23;20722;-83
2022/06/02 09:31:13;;;;;;;6.50;3.97;;;18.90;57.80;;;;;;6199226;23;20155;-83
2022/06/02 09:34:14;;;;;;;4.10;3.70;;;19.00;57.80;;;;;;6223877;23;20164;-83
2022/06/02 09:37:05;;;;;;;6.18;3.83;;;19.00;57.60;;;;;;6200565;23;20615;-82
2022/06/02 09:39:54;;;;;;;4.00;3.50;;;19.00;57.60;;;;;;6196172;23;20236;-83
2022/06/02 09:42:53;;;;;;;5.30;3.85;;;19.00;57.70;;;;;;6197648;23;20160;-83
2022/06/02 09:45:42;;;;;;;4.60;3.72;;;19.00;57.80;;;;;;6202732;23;20183;-83
2022/06/02 09:48:23;;;;;;;5.07;3.80;;;19.00;57.80;;;;;;6173249;23;20580;-83
2022/06/02 09:51:14;;;;;;;4.80;3.70;;;19.00;57.90;;;;;;6224708;23;20133;-84
2022/06/02 09:53:53;;;;;;;4.13;3.72;;;19.00;58.00;;;;;;6203099;23;20165;-83
2022/06/02 09:56:36;;;;;;;4.20;3.65;;;19.00;57.90;;;;;;6173860;23;20149;-83
2022/06/02 09:59:24;;;;;;;3.92;3.25;;;19.00;57.90;;;;;;6200774;23;20160;-83
2022/06/02 10:02:20;;;;;;;4.82;4.00;;;19.00;57.90;;;;;;6202841;23;20212;-84
2022/06/02 10:05:02;;;;;;;4.35;3.60;;;19.00;58.00;;;;;;6208611;23;20145;-83
2022/06/02 10:07:35;;;;;;;4.60;3.58;;;19.00;58.00;;;;;;6201247;23;20164;-84
2022/06/02 10:10:17;;;;;;;5.35;3.95;;;19.10;58.10;;;;;;6174763;23;20194;-83
2022/06/02 10:13:03;;;;;;;5.10;3.70;;;19.00;58.10;;;;;;6223705;23;20132;-83
2022/06/02 10:15:47;;;;;;;4.97;3.80;;;19.00;58.10;;;;;;6200314;23;20628;-84
2022/06/02 10:18:44;;;;;;;4.70;3.70;;;19.00;58.10;;;;;;6198690;23;20153;-83
2022/06/02 10:21:16;;;;;;;4.30;3.90;;;19.00;58.10;;;;;;6225538;23;20193;-84
2022/06/02 10:24:24;;;;;;;6.20;3.78;;;19.00;58.20;;;;;;6220486;23;20622;-83
2022/06/02 10:27:23;;;;;;;5.10;3.80;;;19.00;58.30;;;;;;6221025;23;20195;-84
2022/06/02 10:30:15;;;;;;;5.00;4.00;;;19.00;58.30;;;;;;6246263;23;20150;-83
2022/06/02 10:33:19;;;;;;;4.18;3.78;;;19.00;58.40;;;;;;6222947;23;20218;-84
2022/06/02 10:36:23;;;;;;;4.70;4.07;;;19.00;58.40;;;;;;6136851;23;20162;-83
2022/06/02 10:39:24;;;;;;;3.97;3.30;;;19.00;58.40;;;;;;6154008;23;20267;-83
2022/06/02 10:42:26;;;;;;;3.80;3.40;;;19.00;58.40;;;;;;6129676;23;20162;-84
2022/06/02 10:45:24;;;;;;;4.35;3.83;;;19.00;58.30;;;;;;6129610;23;20169;-83
2022/06/02 10:48:24;;;;;;;4.80;3.80;;;19.00;58.20;;;;;;6133982;23;20230;-83
2022/06/02 10:51:29;;;;;;;4.93;3.60;;;19.00;58.30;;;;;;6156315;23;20614;-83
2022/06/02 10:54:24;;;;;;;6.57;3.75;;;19.00;58.30;;;;;;6137633;23;20161;-83
2022/06/02 10:57:47;;;;;;;5.15;3.50;;;19.00;58.40;;;;;;6108935;23;20463;-83
2022/06/02 11:00:36;;;;;;;7.47;3.65;;;19.00;58.40;;;;;;6113859;23;20147;-83
2022/06/02 11:03:16;;;;;;;4.32;3.78;;;19.10;58.50;;;;;;6098655;23;20568;-83
2022/06/02 11:06:17;;;;;;;8.60;3.67;;;19.00;58.50;;;;;;6136543;23;20168;-84
2022/06/02 11:09:09;;;;;;;6.50;4.03;;;19.00;58.50;;;;;;6108655;23;20162;-83
2022/06/02 11:12:01;;;;;;;6.38;3.78;;;19.00;58.50;;;;;;6131661;23;20151;-83
2022/06/02 11:15:04;;;;;;;5.43;3.25;;;19.00;58.70;;;;;;6091325;23;20139;-83
2022/06/02 11:17:50;;;;;;;4.00;3.60;;;19.10;58.60;;;;;;6133005;23;20161;-83
2022/06/02 11:27:39;;;;;;;5.68;3.63;;;19.10;58.60;;;;;;5987977;23;20204;-81
2022/06/02 11:30:43;;;;;;;;;;;;;;;;;;;;;
2022/06/02 11:33:53;;;;;;;6.95;3.50;;;19.10;58.60;;;;;;5990411;23;20186;-81
2022/06/02 11:37:08;;;;;;;8.65;3.53;;;19.10;58.80;;;;;;6011552;23;20223;-84
2022/06/02 11:40:04;;;;;;;4.35;3.55;;;19.10;58.80;;;;;;5948633;24;20151;-83
2022/06/02 11:43:09;;;;;;;;;;;;;;;;;;;;;
2022/06/02 11:46:48;;;;;;;5.10;3.95;;;19.10;59.00;;;;;;5890036;24;20255;-84
2022/06/02 11:49:24;;;;;;;4.00;3.60;;;19.10;58.90;;;;;;5920308;23;20154;-84
2022/06/02 11:52:07;;;;;;;3.67;3.10;;;19.10;58.90;;;;;;5989150;23;20154;-85
2022/06/02 11:58:27;;;;;;;;;;;;;;;;;;;;;
2022/06/02 12:01:34;;;;;;;8.00;3.75;;;19.20;59.10;;;;;;5914431;24;20304;-83
2022/06/02 12:04:26;;;;;;;4.70;3.22;;;19.20;59.20;;;;;;5992939;23;20201;-83
2022/06/02 12:14:21;;;;;;;5.47;3.70;;;19.20;59.10;;;;;;5906869;24;20488;-83
2022/06/02 12:17:02;;;;;;;3.30;3.00;;;19.20;59.50;;;;;;5917841;24;20167;-83
2022/06/02 12:24:09;;;;;;;3.47;3.15;;;19.20;59.80;;;;;;5844951;24;20226;-83
2022/06/02 12:26:37;;;;;;;7.22;3.90;;;19.20;60.10;;;;;;5851972;24;20186;-84
2022/06/02 12:29:27;;;;;;;3.72;3.35;;;19.20;60.00;;;;;;5873590;24;20245;-83
2022/06/02 12:32:11;;;;;;;8.00;3.72;;;19.20;60.00;;;;;;5855026;24;20222;-84
2022/06/02 12:35:02;;;;;;;4.38;3.50;;;19.20;60.20;;;;;;5852335;24;20580;-84
2022/06/02 12:37:50;;;;;;;6.55;4.05;;;19.20;60.10;;;;;;5853996;24;20158;-84
2022/06/02 12:40:34;;;;;;;5.20;3.72;;;19.10;60.40;;;;;;5852085;24;20158;-83
2022/06/02 12:43:30;;;;;;;6.97;3.88;;;19.20;60.70;;;;;;5855049;24;20185;-84
2022/06/02 12:46:23;;;;;;;4.63;3.63;;;19.10;60.80;;;;;;5815162;24;20190;-83
2022/06/02 12:48:56;;;;;;;3.83;3.47;;;19.10;60.70;;;;;;5857296;24;20161;-84
2022/06/02 12:51:35;;;;;;;4.28;3.88;;;19.10;60.70;;;;;;5960396;23;20166;-84
2022/06/02 12:54:23;;;;;;;4.38;3.97;;;19.10;61.10;;;;;;5991566;23;20175;-84
2022/06/02 12:57:24;;;;;;;4.15;3.75;;;19.10;61.20;;;;;;6015144;23;20277;-85
2022/06/02 13:00:13;;;;;;;4.13;3.53;;;19.10;61.50;;;;;;6055457;23;20203;-85
2022/06/02 13:02:58;;;;;;;4.65;3.60;;;19.10;61.20;;;;;;6158648;23;20219;-84
2022/06/02 13:05:56;;;;;;;4.47;4.07;;;19.10;61.20;;;;;;6256092;23;20541;-84
2022/06/02 13:08:34;;;;;;;4.38;3.63;;;19.10;61.70;;;;;;6231600;23;20154;-84
2022/06/02 13:11:26;;;;;;;5.65;3.70;;;19.10;61.60;;;;;;6229898;23;20141;-84
2022/06/02 13:14:06;;;;;;;4.55;4.10;;;19.10;61.50;;;;;;6227322;23;20134;-83
2022/06/02 13:16:56;;;;;;;5.35;4.30;;;19.10;61.80;;;;;;6178760;23;20152;-84
2022/06/02 13:19:46;;;;;;;4.53;4.07;;;19.10;62.10;;;;;;6233169;23;20157;-84
2022/06/02 13:22:24;;;;;;;3.78;3.47;;;19.00;62.20;;;;;;6234706;23;20133;-83
2022/06/02 13:25:14;;;;;;;5.00;3.58;;;19.00;62.00;;;;;;6254075;23;20133;-84
2022/06/02 13:28:04;;;;;;;4.10;3.60;;;19.10;62.10;;;;;;6231716;23;20166;-85
2022/06/02 13:31:04;;;;;;;5.63;4.38;;;19.10;62.10;;;;;;6230417;23;20206;-85
2022/06/02 13:33:46;;;;;;;4.20;3.80;;;19.10;62.30;;;;;;6257058;23;20222;-85
2022/06/02 13:36:52;;;;;;;5.30;3.70;;;19.00;62.40;;;;;;6179340;23;20142;-85
2022/06/02 13:40:00;;;;;;;4.95;3.90;;;19.10;63.60;;;;;;6067529;23;20164;-84
2022/06/02 13:43:04;;;;;;;5.25;4.30;;;19.10;63.40;;;;;;6032723;23;20501;-84
2022/06/02 13:45:52;;;;;;;6.70;4.30;;;19.10;63.60;;;;;;6074187;23;20564;-84
2022/06/02 13:49:10;;;;;;;5.88;4.10;;;19.10;63.60;;;;;;6048625;23;20176;-85
2022/06/02 13:52:17;;;;;;;6.80;4.20;;;19.10;63.30;;;;;;5958742;24;20282;-84
2022/06/02 13:58:18;;;;;;;9.05;4.45;;;19.10;63.00;;;;;;5989422;24;20188;-84
2022/06/02 14:00:54;;;;;;;6.25;4.13;;;19.20;63.00;;;;;;5986341;24;20226;-85
2022/06/02 14:03:45;;;;;;;6.38;4.07;;;19.20;63.20;;;;;;6003623;23;20215;-84
2022/06/02 14:06:41;;;;;;;8.13;4.53;;;19.20;63.00;;;;;;6101872;23;20184;-85
2022/06/02 14:09:36;;;;;;;6.72;4.07;;;19.20;62.70;;;;;;6037901;23;20259;-84
2022/06/02 14:12:19;;;;;;;4.65;4.10;;;19.20;63.10;;;;;;6071339;23;20540;-85
2022/06/02 14:15:24;;;;;;;7.72;4.03;;;19.10;62.90;;;;;;6035979;23;20181;-84
2022/06/02 14:18:24;;;;;;;8.13;4.05;;;19.20;62.90;;;;;;5961715;24;20178;-84
2022/06/02 14:21:21;;;;;;;4.00;3.60;;;19.20;63.00;;;;;;5983522;23;20155;-85
2022/06/02 14:24:07;;;;;;;5.32;4.25;;;19.20;63.00;;;;;;6013038;23;20155;-85
2022/06/02 14:26:57;;;;;;;4.65;4.25;;;19.20;62.90;;;;;;6014337;23;20201;-82
2022/06/02 14:33:14;;;;;;;4.43;3.85;;;19.20;62.70;;;;;;5942792;24;20186;-86
2022/06/02 14:36:24;;;;;;;11.68;4.15;;;19.30;63.00;;;;;;5957045;24;20176;-85
2022/06/02 14:39:14;;;;;;;7.30;3.65;;;19.20;63.40;;;;;;5955152;24;20717;-84
2022/06/02 14:42:16;;;;;;;7.22;4.15;;;19.20;63.40;;;;;;5913388;24;20204;-83
2022/06/02 14:45:18;;;;;;;8.40;3.85;;;19.20;63.70;;;;;;5906617;24;20156;-84
2022/06/02 14:48:05;;;;;;;8.07;4.18;;;19.20;63.70;;;;;;5955766;24;20163;-84
2022/06/02 14:50:36;;;;;;;7.65;4.03;;;19.20;63.80;;;;;;5962606;24;20178;-84
2022/06/02 14:53:33;;;;;;;5.45;3.65;;;19.20;63.40;;;;;;5938435;24;20162;-84
2022/06/02 14:56:20;;;;;;;7.00;4.32;;;19.20;63.20;;;;;;5943513;24;20167;-85
2022/06/02 14:59:28;;;;;;;5.97;3.47;;;19.20;63.80;;;;;;5938412;24;20179;-86
2022/06/02 15:02:25;;;;;;;4.70;3.75;;;19.20;63.30;;;;;;5972951;24;20166;-84
2022/06/02 15:05:06;;;;;;;4.57;3.00;;;19.20;63.10;;;;;;5991970;23;20174;-84
2022/06/02 15:08:05;;;;;;;4.75;3.58;;;19.30;62.90;;;;;;5988191;23;20206;-85
2022/06/02 15:10:58;;;;;;;6.30;3.80;;;19.30;62.90;;;;;;6057175;23;20153;-85
2022/06/02 15:13:59;;;;;;;5.90;3.53;;;19.30;63.30;;;;;;6048322;23;20275;-85